createdAt,value
2023-05-14T00:02:00.325Z,3.42
2023-05-14T00:06:12.841Z,2.92
2023-05-14T00:10:25.575Z,3.10
2023-05-14T00:14:48.217Z,3.13
2023-05-14T00:19:00.771Z,3.40
2023-05-14T00:23:13.472Z,2.97
2023-05-14T00:27:25.908Z,3.05
2023-05-14T00:31:38.362Z,3.08
2023-05-14T00:35:52.534Z,3.08
2023-05-14T00:40:07.542Z,2.80
2023-05-14T00:44:20.022Z,3.42
2023-05-14T00:48:32.558Z,2.97
2023-05-14T00:52:45.092Z,3.33
2023-05-14T00:56:57.900Z,2.75
2023-05-14T01:01:10.704Z,2.90
2023-05-14T01:05:26.839Z,2.92
2023-05-14T01:10:07.014Z,3.28
2023-05-14T01:14:34.203Z,3.35
2023-05-14T01:18:50.122Z,2.75
2023-05-14T01:23:04.020Z,3.05
2023-05-14T01:27:32.195Z,2.85
2023-05-14T01:31:48.156Z,3.10
2023-05-14T01:36:01.133Z,2.47
2023-05-14T01:40:25.060Z,3.03
2023-05-14T01:44:37.799Z,2.78
2023-05-14T01:48:50.842Z,3.10
2023-05-14T01:53:03.310Z,2.55
2023-05-14T01:57:15.734Z,3.08
2023-05-14T02:01:28.662Z,2.83
2023-05-14T02:05:41.214Z,2.80
2023-05-14T02:09:53.653Z,2.47
2023-05-14T02:14:06.112Z,2.63
2023-05-14T02:18:18.647Z,3.78
2023-05-14T02:22:31.183Z,2.80
2023-05-14T02:26:43.612Z,2.85
2023-05-14T02:31:02.436Z,3.20
2023-05-14T02:35:14.903Z,3.05
2023-05-14T02:39:27.518Z,3.13
2023-05-14T02:43:45.056Z,2.58
2023-05-14T02:47:57.569Z,3.00
2023-05-14T02:52:10.085Z,2.45
2023-05-14T02:56:23.365Z,2.67
2023-05-14T03:00:35.830Z,3.55
2023-05-14T03:04:49.055Z,3.00
2023-05-14T03:09:01.530Z,2.72
2023-05-14T03:13:18.585Z,2.65
2023-05-14T03:17:31.169Z,3.03
2023-05-14T03:21:53.763Z,3.35
2023-05-14T03:26:07.736Z,4.03
2023-05-14T03:30:20.257Z,3.35
2023-05-14T03:34:32.886Z,3.15
2023-05-14T03:38:45.298Z,3.38
2023-05-14T03:43:07.765Z,3.28
2023-05-14T03:47:20.197Z,3.28
2023-05-14T03:51:42.665Z,3.28
2023-05-14T03:55:56.233Z,3.10
2023-05-14T04:00:09.669Z,3.72
2023-05-14T04:04:22.161Z,3.15
2023-05-14T04:08:34.674Z,2.55
2023-05-14T04:12:47.181Z,3.08
2023-05-14T04:17:00.339Z,2.85
2023-05-14T04:21:13.320Z,3.58
2023-05-14T04:25:28.098Z,2.72
2023-05-14T04:29:40.541Z,3.35
2023-05-14T04:33:53.051Z,3.50
2023-05-14T04:38:05.610Z,3.90
2023-05-14T04:42:18.038Z,3.58
2023-05-14T04:46:30.594Z,3.85
2023-05-14T04:50:53.074Z,4.35
2023-05-14T04:55:06.450Z,4.10
2023-05-14T04:59:18.980Z,4.05
2023-05-14T05:03:32.058Z,3.95
2023-05-14T05:07:44.585Z,4.30
2023-05-14T05:11:57.138Z,4.45
2023-05-14T05:16:09.728Z,4.57
2023-05-14T05:20:24.091Z,4.97
2023-05-14T05:24:37.160Z,3.67
2023-05-14T05:28:50.225Z,3.33
2023-05-14T05:33:02.914Z,4.60
2023-05-14T05:37:15.748Z,4.43
2023-05-14T05:41:28.216Z,4.50
2023-05-14T05:45:40.688Z,4.80
2023-05-14T05:49:54.258Z,4.45
2023-05-14T05:54:16.753Z,4.80
2023-05-14T05:58:29.963Z,4.93
2023-05-14T06:02:47.615Z,4.13
2023-05-14T06:07:00.121Z,3.80
2023-05-14T06:11:12.749Z,3.55
2023-05-14T06:15:25.214Z,4.90
2023-05-14T06:19:38.137Z,4.40
2023-05-14T06:23:50.638Z,3.53
2023-05-14T06:28:03.141Z,3.88
2023-05-14T06:32:18.724Z,4.20
2023-05-14T06:36:31.234Z,3.60
2023-05-14T06:40:43.720Z,4.53
2023-05-14T06:44:56.820Z,4.15
2023-05-14T06:49:09.337Z,4.22
2023-05-14T06:53:21.929Z,4.53
2023-05-14T06:57:35.447Z,3.90
2023-05-14T07:01:57.181Z,4.20
2023-05-14T07:06:11.241Z,4.00
2023-05-14T07:10:25.936Z,4.10
2023-05-14T07:14:39.269Z,3.80
2023-05-14T07:18:51.974Z,4.28
2023-05-14T07:23:04.585Z,3.90
2023-05-14T07:27:17.969Z,3.47
2023-05-14T07:31:30.623Z,3.65
2023-05-14T07:35:43.570Z,4.22
2023-05-14T07:39:56.922Z,4.63
2023-05-14T07:44:09.791Z,3.70
2023-05-14T07:48:22.392Z,4.43
2023-05-14T07:52:34.973Z,4.25
2023-05-14T07:56:47.398Z,3.35
2023-05-14T08:01:09.921Z,3.45
2023-05-14T08:05:22.437Z,3.88
2023-05-14T08:09:35.285Z,4.05
2023-05-14T08:13:47.772Z,3.40
2023-05-14T08:18:04.155Z,4.10
2023-05-14T08:22:16.661Z,3.45
2023-05-14T08:26:29.352Z,4.35
2023-05-14T08:30:41.889Z,3.95
2023-05-14T08:34:54.396Z,3.70
2023-05-14T08:39:08.380Z,4.20
2023-05-14T08:43:27.147Z,3.55
2023-05-14T08:47:39.797Z,3.88
2023-05-14T08:51:52.360Z,3.38
2023-05-14T08:56:07.822Z,3.90
2023-05-14T09:00:20.868Z,3.28
2023-05-14T09:04:33.645Z,4.07
2023-05-14T09:08:47.269Z,2.85
2023-05-14T09:12:59.855Z,3.17
2023-05-14T09:17:13.476Z,3.42
2023-05-14T09:21:26.114Z,3.70
2023-05-14T09:25:38.568Z,4.05
2023-05-14T09:29:50.989Z,2.90
2023-05-14T09:34:03.471Z,3.53
2023-05-14T09:38:16.999Z,3.47
2023-05-14T09:42:29.395Z,2.42
2023-05-14T09:46:53.353Z,3.05
2023-05-14T09:51:06.710Z,2.63
2023-05-14T09:55:19.837Z,2.33
2023-05-14T09:59:42.731Z,2.50
2023-05-14T10:03:56.329Z,2.75
2023-05-14T10:08:57.175Z,2.50
2023-05-14T10:13:24.292Z,2.67
2023-05-14T10:17:41.885Z,3.28
2023-05-14T10:21:58.030Z,2.58
2023-05-14T10:26:11.619Z,2.63
2023-05-14T10:30:24.735Z,2.67
2023-05-14T10:34:47.481Z,2.03
2023-05-14T10:39:00.121Z,2.60
2023-05-14T10:43:12.733Z,2.78
2023-05-14T10:47:27.098Z,2.45
2023-05-14T10:51:40.460Z,2.35
2023-05-14T10:55:56.438Z,2.70
2023-05-14T11:00:09.794Z,2.47
2023-05-14T11:04:25.691Z,2.65
2023-05-14T11:08:39.628Z,2.92
2023-05-14T11:12:53.357Z,2.75
2023-05-14T11:17:06.547Z,2.92
2023-05-14T11:21:19.048Z,2.92
2023-05-14T11:25:31.966Z,2.60
2023-05-14T11:29:48.915Z,2.63
2023-05-14T11:34:01.874Z,2.28
2023-05-14T11:38:22.034Z,2.72
2023-05-14T11:42:44.534Z,2.60
2023-05-14T11:46:58.401Z,2.88
2023-05-14T11:51:10.935Z,2.85
2023-05-14T11:55:23.412Z,2.92
2023-05-14T11:59:36.056Z,2.60
2023-05-14T12:03:48.707Z,2.80
2023-05-14T12:08:01.280Z,3.03
2023-05-14T12:12:13.908Z,2.83
2023-05-14T12:16:36.236Z,2.65
2023-05-14T12:20:52.130Z,2.60
2023-05-14T12:25:05.029Z,2.58
2023-05-14T12:29:23.645Z,2.13
2023-05-14T12:33:36.554Z,2.35
2023-05-14T12:37:49.056Z,2.30
2023-05-14T12:42:02.407Z,1.95
2023-05-14T12:46:14.860Z,2.00
2023-05-14T12:50:27.618Z,1.83
2023-05-14T12:54:42.990Z,2.20
2023-05-14T12:59:05.871Z,2.50
2023-05-14T13:03:18.408Z,2.47
2023-05-14T13:07:31.349Z,2.10
2023-05-14T13:11:43.795Z,2.25
2023-05-14T13:15:56.366Z,2.00
2023-05-14T13:20:18.807Z,1.92
2023-05-14T13:24:31.210Z,2.03
2023-05-14T13:28:44.165Z,1.98
2023-05-14T13:32:56.711Z,2.10
2023-05-14T13:37:09.132Z,1.98
2023-05-14T13:41:22.433Z,2.10
2023-05-14T13:45:34.904Z,2.08
2023-05-14T13:49:47.552Z,1.80
2023-05-14T13:54:00.382Z,1.88
2023-05-14T13:58:12.841Z,1.90
2023-05-14T14:02:25.335Z,1.90
2023-05-14T14:06:37.764Z,1.50
2023-05-14T14:11:00.204Z,1.35
2023-05-14T14:15:12.725Z,1.30
2023-05-14T14:19:25.282Z,1.73
2023-05-14T14:23:38.341Z,1.60
2023-05-14T14:27:51.734Z,1.60
2023-05-14T14:32:04.881Z,1.67
2023-05-14T14:36:17.355Z,1.58
2023-05-14T14:40:30.503Z,1.00
2023-05-14T14:44:45.774Z,1.00
2023-05-14T14:48:58.230Z,1.30
2023-05-14T14:53:10.777Z,1.23
2023-05-14T14:57:23.600Z,1.35
2023-05-14T15:01:36.446Z,1.20
2023-05-14T15:05:49.683Z,0.95
2023-05-14T15:10:02.188Z,1.10
2023-05-14T15:14:14.632Z,1.13
2023-05-14T15:18:27.589Z,1.20
2023-05-14T15:22:40.030Z,1.00
2023-05-14T15:26:53.563Z,0.98
2023-05-14T15:31:06.910Z,1.10
2023-05-14T15:35:19.447Z,1.08
2023-05-14T15:39:32.327Z,0.70
2023-05-14T15:43:44.773Z,1.02
2023-05-14T15:47:57.284Z,1.10
2023-05-14T15:52:18.759Z,1.08
2023-05-14T15:56:32.065Z,1.00
2023-05-14T16:00:44.528Z,0.73
2023-05-14T16:04:57.169Z,1.17
2023-05-14T16:09:10.131Z,1.27
2023-05-14T16:13:22.616Z,1.00
2023-05-14T16:17:45.170Z,1.20
2023-05-14T16:21:57.601Z,1.20
2023-05-14T16:26:10.107Z,1.00
2023-05-14T16:30:22.792Z,1.10
2023-05-14T16:34:50.369Z,1.23
2023-05-14T16:39:08.209Z,1.33
2023-05-14T16:43:21.076Z,1.35
2023-05-14T16:47:33.560Z,1.10
2023-05-14T16:51:56.095Z,1.17
2023-05-14T16:56:08.560Z,0.90
2023-05-14T17:00:21.240Z,0.47
2023-05-14T17:04:34.126Z,0.73
2023-05-14T17:08:46.631Z,0.85
2023-05-14T17:12:59.156Z,0.88
2023-05-14T17:17:11.608Z,1.05
2023-05-14T17:21:24.054Z,0.93
2023-05-14T17:25:36.505Z,0.90
2023-05-14T17:29:51.731Z,1.10
2023-05-14T17:34:04.151Z,1.20
2023-05-14T17:38:26.702Z,0.93
2023-05-14T17:42:39.378Z,1.20
2023-05-14T17:46:51.891Z,1.40
2023-05-14T17:51:04.468Z,0.90
2023-05-14T17:55:18.236Z,0.90
2023-05-14T17:59:30.678Z,1.20
2023-05-14T18:03:43.167Z,1.00
2023-05-14T18:07:56.861Z,1.10
2023-05-14T18:12:19.326Z,0.80
2023-05-14T18:16:41.816Z,1.30
2023-05-14T18:20:54.384Z,1.40
2023-05-14T18:25:07.975Z,1.10
2023-05-14T18:29:20.434Z,0.82
2023-05-14T18:33:35.742Z,1.02
2023-05-14T18:37:48.295Z,1.00
2023-05-14T18:42:01.463Z,1.10
2023-05-14T18:46:14.313Z,0.98
2023-05-14T18:50:26.913Z,1.05
2023-05-14T18:54:49.388Z,0.90
2023-05-14T18:59:01.878Z,1.15
2023-05-14T19:03:15.127Z,1.17
2023-05-14T19:07:28.456Z,1.23
2023-05-14T19:11:40.878Z,0.93
2023-05-14T19:15:53.375Z,1.13
2023-05-14T19:20:07.300Z,1.30
2023-05-14T19:24:29.812Z,1.20
2023-05-14T19:28:42.471Z,1.27
2023-05-14T19:33:03.029Z,1.27
2023-05-14T19:37:15.637Z,1.40
2023-05-14T19:41:28.544Z,1.40
2023-05-14T19:45:43.348Z,1.40
2023-05-14T19:49:55.862Z,1.60
2023-05-14T19:54:08.471Z,1.40
2023-05-14T19:58:20.951Z,1.70
2023-05-14T20:02:34.709Z,1.25
2023-05-14T20:06:47.926Z,1.42
2023-05-14T20:11:00.382Z,3.33
2023-05-14T20:15:13.002Z,2.33
2023-05-14T20:19:25.485Z,1.85
2023-05-14T20:23:38.107Z,1.55
2023-05-14T20:27:50.680Z,1.73
2023-05-14T20:32:12.003Z,1.90
2023-05-14T20:36:25.221Z,1.73
2023-05-14T20:40:37.776Z,1.58
2023-05-14T20:45:00.207Z,1.30
2023-05-14T20:49:12.673Z,1.70
2023-05-14T20:53:26.282Z,1.35
2023-05-14T20:57:38.804Z,1.50
2023-05-14T21:01:51.605Z,1.60
2023-05-14T21:06:04.181Z,1.70
2023-05-14T21:10:17.075Z,1.40
2023-05-14T21:14:29.578Z,1.67
2023-05-14T21:18:42.107Z,1.75
2023-05-14T21:22:54.581Z,1.83
2023-05-14T21:27:07.180Z,1.42
2023-05-14T21:31:19.630Z,1.63
2023-05-14T21:35:32.228Z,1.63
2023-05-14T21:39:44.668Z,1.70
2023-05-14T21:43:57.128Z,1.85
2023-05-14T21:48:20.600Z,1.50
2023-05-14T21:52:33.144Z,1.70
2023-05-14T21:56:45.593Z,1.80
2023-05-14T22:00:58.625Z,1.52
2023-05-14T22:05:11.144Z,1.50
2023-05-14T22:09:27.506Z,1.67
2023-05-14T22:13:41.737Z,1.60
2023-05-14T22:17:54.208Z,1.15
2023-05-14T22:22:06.788Z,1.13
2023-05-14T22:26:19.283Z,1.42
2023-05-14T22:30:31.737Z,1.77
2023-05-14T22:34:44.197Z,2.20
2023-05-14T22:38:56.649Z,1.40
2023-05-14T22:43:09.133Z,1.30
2023-05-14T22:47:21.579Z,1.50
2023-05-14T22:51:33.985Z,1.73
2023-05-14T22:55:46.431Z,1.52
2023-05-14T22:59:58.916Z,1.67
2023-05-14T23:04:11.863Z,1.50
2023-05-14T23:08:24.572Z,1.50
2023-05-14T23:12:37.019Z,1.80
2023-05-14T23:16:59.506Z,1.95
2023-05-14T23:21:12.780Z,1.73
2023-05-14T23:25:25.471Z,1.90
2023-05-14T23:29:38.108Z,1.67
2023-05-14T23:33:50.584Z,1.85
2023-05-14T23:38:03.057Z,1.88
2023-05-14T23:42:27.410Z,1.80
2023-05-14T23:46:50.022Z,2.05
2023-05-14T23:51:02.556Z,1.40
2023-05-14T23:55:15.263Z,1.58
2023-05-14T23:59:27.900Z,1.70
